sensor_id;sensor_type;location;lat;lon;timestamp;P1;durP1;ratioP1;P2;durP2;ratioP2
50988;SDS011;37008;52.210;21.112;2022-10-16T00:01:20;23.25;;;16.73;;
50988;SDS011;37008;52.210;21.112;2022-10-16T00:03:47;20.48;;;16.17;;
50988;SDS011;37008;52.210;21.112;2022-10-16T00:06:14;21.33;;;16.13;;
50988;SDS011;37008;52.210;21.112;2022-10-16T00:08:41;20.95;;;16.50;;
50988;SDS011;37008;52.210;21.112;2022-10-16T00:11:08;23.00;;;16.38;;
50988;SDS011;37008;52.210;21.112;2022-10-16T00:13:40;21.30;;;17.38;;
50988;SDS011;37008;52.210;21.112;2022-10-16T00:16:08;22.67;;;16.52;;
50988;SDS011;37008;52.210;21.112;2022-10-16T00:18:35;21.88;;;17.42;;
50988;SDS011;37008;52.210;21.112;2022-10-16T00:21:06;26.88;;;19.13;;
50988;SDS011;37008;52.210;21.112;2022-10-16T00:23:38;25.58;;;19.15;;
50988;SDS011;37008;52.210;21.112;2022-10-16T00:26:06;30.02;;;21.20;;
50988;SDS011;37008;52.210;21.112;2022-10-16T00:28:35;24.77;;;19.27;;
50988;SDS011;37008;52.210;21.112;2022-10-16T00:31:05;31.27;;;21.20;;
50988;SDS011;37008;52.210;21.112;2022-10-16T00:33:32;29.25;;;21.73;;
50988;SDS011;37008;52.210;21.112;2022-10-16T00:35:58;27.75;;;22.33;;
50988;SDS011;37008;52.210;21.112;2022-10-16T00:38:25;31.73;;;22.25;;
50988;SDS011;37008;52.210;21.112;2022-10-16T00:40:53;31.05;;;23.35;;
50988;SDS011;37008;52.210;21.112;2022-10-16T00:46:22;30.60;;;25.10;;
50988;SDS011;37008;52.210;21.112;2022-10-16T00:49:00;31.83;;;23.85;;
50988;SDS011;37008;52.210;21.112;2022-10-16T00:51:38;29.08;;;24.30;;
50988;SDS011;37008;52.210;21.112;2022-10-16T00:56:46;35.05;;;26.58;;
50988;SDS011;37008;52.210;21.112;2022-10-16T01:02:13;32.35;;;25.42;;
50988;SDS011;37008;52.210;21.112;2022-10-16T01:04:45;33.92;;;26.73;;
50988;SDS011;37008;52.210;21.112;2022-10-16T01:12:51;31.90;;;24.35;;
50988;SDS011;37008;52.210;21.112;2022-10-16T01:15:39;34.50;;;24.95;;
50988;SDS011;37008;52.210;21.112;2022-10-16T01:18:46;32.88;;;23.23;;
50988;SDS011;37008;52.210;21.112;2022-10-16T01:21:22;28.83;;;23.48;;
50988;SDS011;37008;52.210;21.112;2022-10-16T01:24:01;31.55;;;23.75;;
50988;SDS011;37008;52.210;21.112;2022-10-16T01:27:13;29.80;;;23.00;;
50988;SDS011;37008;52.210;21.112;2022-10-16T01:32:28;32.90;;;23.30;;
50988;SDS011;37008;52.210;21.112;2022-10-16T01:35:04;31.17;;;23.83;;
50988;SDS011;37008;52.210;21.112;2022-10-16T01:37:36;25.73;;;22.38;;
50988;SDS011;37008;52.210;21.112;2022-10-16T01:40:11;35.63;;;23.95;;
50988;SDS011;37008;52.210;21.112;2022-10-16T01:42:40;30.77;;;24.65;;
50988;SDS011;37008;52.210;21.112;2022-10-16T01:45:09;36.35;;;24.65;;
50988;SDS011;37008;52.210;21.112;2022-10-16T01:47:38;30.00;;;23.63;;
50988;SDS011;37008;52.210;21.112;2022-10-16T01:50:05;32.17;;;23.65;;
50988;SDS011;37008;52.210;21.112;2022-10-16T01:52:34;31.20;;;23.42;;
50988;SDS011;37008;52.210;21.112;2022-10-16T01:55:07;32.42;;;25.10;;
50988;SDS011;37008;52.210;21.112;2022-10-16T01:57:36;30.52;;;23.65;;
50988;SDS011;37008;52.210;21.112;2022-10-16T02:00:07;33.58;;;24.33;;
50988;SDS011;37008;52.210;21.112;2022-10-16T02:02:35;35.42;;;23.90;;
50988;SDS011;37008;52.210;21.112;2022-10-16T02:05:46;34.40;;;25.48;;
50988;SDS011;37008;52.210;21.112;2022-10-16T02:07:57;32.63;;;24.98;;
50988;SDS011;37008;52.210;21.112;2022-10-16T02:10:23;33.92;;;25.40;;
50988;SDS011;37008;52.210;21.112;2022-10-16T02:12:53;35.30;;;25.85;;
50988;SDS011;37008;52.210;21.112;2022-10-16T02:15:31;31.77;;;25.20;;
50988;SDS011;37008;52.210;21.112;2022-10-16T02:17:57;38.47;;;25.63;;
50988;SDS011;37008;52.210;21.112;2022-10-16T02:20:29;34.35;;;27.08;;
50988;SDS011;37008;52.210;21.112;2022-10-16T02:23:01;33.17;;;26.15;;
50988;SDS011;37008;52.210;21.112;2022-10-16T02:25:32;33.58;;;25.75;;
50988;SDS011;37008;52.210;21.112;2022-10-16T02:30:41;34.53;;;25.30;;
50988;SDS011;37008;52.210;21.112;2022-10-16T02:33:12;35.45;;;26.77;;
50988;SDS011;37008;52.210;21.112;2022-10-16T02:35:41;33.50;;;25.42;;
50988;SDS011;37008;52.210;21.112;2022-10-16T02:38:08;37.15;;;28.20;;
50988;SDS011;37008;52.210;21.112;2022-10-16T02:40:34;38.92;;;26.58;;
50988;SDS011;37008;52.210;21.112;2022-10-16T02:43:03;35.17;;;27.65;;
50988;SDS011;37008;52.210;21.112;2022-10-16T02:45:32;37.33;;;27.10;;
50988;SDS011;37008;52.210;21.112;2022-10-16T02:47:58;36.30;;;28.33;;
50988;SDS011;37008;52.210;21.112;2022-10-16T02:50:30;38.00;;;27.38;;
50988;SDS011;37008;52.210;21.112;2022-10-16T02:53:02;36.83;;;27.70;;
50988;SDS011;37008;52.210;21.112;2022-10-16T02:55:27;39.15;;;28.02;;
50988;SDS011;37008;52.210;21.112;2022-10-16T02:57:54;34.22;;;28.38;;
50988;SDS011;37008;52.210;21.112;2022-10-16T03:00:20;36.75;;;28.27;;
50988;SDS011;37008;52.210;21.112;2022-10-16T03:02:46;36.25;;;26.73;;
50988;SDS011;37008;52.210;21.112;2022-10-16T03:05:12;33.28;;;26.55;;
50988;SDS011;37008;52.210;21.112;2022-10-16T03:07:38;36.13;;;26.65;;
50988;SDS011;37008;52.210;21.112;2022-10-16T03:10:04;32.35;;;26.25;;
50988;SDS011;37008;52.210;21.112;2022-10-16T03:12:30;32.72;;;26.77;;
50988;SDS011;37008;52.210;21.112;2022-10-16T03:14:56;35.55;;;27.95;;
50988;SDS011;37008;52.210;21.112;2022-10-16T03:17:27;37.63;;;24.60;;
50988;SDS011;37008;52.210;21.112;2022-10-16T03:20:02;32.70;;;25.30;;
50988;SDS011;37008;52.210;21.112;2022-10-16T03:22:31;36.13;;;27.13;;
50988;SDS011;37008;52.210;21.112;2022-10-16T03:24:57;32.78;;;25.73;;
50988;SDS011;37008;52.210;21.112;2022-10-16T03:27:28;30.15;;;25.67;;
50988;SDS011;37008;52.210;21.112;2022-10-16T03:29:57;38.75;;;26.67;;
50988;SDS011;37008;52.210;21.112;2022-10-16T03:32:25;34.80;;;25.05;;
50988;SDS011;37008;52.210;21.112;2022-10-16T03:34:50;38.05;;;25.98;;
50988;SDS011;37008;52.210;21.112;2022-10-16T03:37:18;39.45;;;26.23;;
50988;SDS011;37008;52.210;21.112;2022-10-16T03:39:43;32.03;;;26.55;;
50988;SDS011;37008;52.210;21.112;2022-10-16T03:42:09;31.02;;;25.88;;
50988;SDS011;37008;52.210;21.112;2022-10-16T03:44:37;31.90;;;25.83;;
50988;SDS011;37008;52.210;21.112;2022-10-16T03:47:03;33.42;;;25.38;;
50988;SDS011;37008;52.210;21.112;2022-10-16T03:49:28;33.53;;;25.48;;
50988;SDS011;37008;52.210;21.112;2022-10-16T03:51:54;29.90;;;24.90;;
50988;SDS011;37008;52.210;21.112;2022-10-16T03:54:20;36.45;;;25.42;;
50988;SDS011;37008;52.210;21.112;2022-10-16T03:56:47;37.53;;;25.30;;
50988;SDS011;37008;52.210;21.112;2022-10-16T03:59:12;40.83;;;24.65;;
50988;SDS011;37008;52.210;21.112;2022-10-16T04:01:38;30.85;;;24.70;;
50988;SDS011;37008;52.210;21.112;2022-10-16T04:04:04;29.70;;;24.73;;
50988;SDS011;37008;52.210;21.112;2022-10-16T04:06:29;32.63;;;24.30;;
50988;SDS011;37008;52.210;21.112;2022-10-16T04:08:55;31.30;;;23.90;;
50988;SDS011;37008;52.210;21.112;2022-10-16T04:11:21;33.47;;;25.02;;
50988;SDS011;37008;52.210;21.112;2022-10-16T04:13:49;32.33;;;24.90;;
50988;SDS011;37008;52.210;21.112;2022-10-16T04:16:15;32.97;;;23.67;;
50988;SDS011;37008;52.210;21.112;2022-10-16T04:18:43;31.60;;;25.17;;
50988;SDS011;37008;52.210;21.112;2022-10-16T04:21:08;34.95;;;25.25;;
50988;SDS011;37008;52.210;21.112;2022-10-16T04:23:34;31.58;;;25.33;;
50988;SDS011;37008;52.210;21.112;2022-10-16T04:25:59;32.83;;;24.48;;
50988;SDS011;37008;52.210;21.112;2022-10-16T04:28:29;35.70;;;25.20;;
50988;SDS011;37008;52.210;21.112;2022-10-16T04:30:55;32.38;;;24.35;;
50988;SDS011;37008;52.210;21.112;2022-10-16T04:33:20;31.95;;;24.95;;
50988;SDS011;37008;52.210;21.112;2022-10-16T04:35:46;37.95;;;25.35;;
50988;SDS011;37008;52.210;21.112;2022-10-16T04:38:11;30.80;;;24.60;;
50988;SDS011;37008;52.210;21.112;2022-10-16T04:40:37;33.42;;;25.50;;
50988;SDS011;37008;52.210;21.112;2022-10-16T04:43:03;39.13;;;27.88;;
50988;SDS011;37008;52.210;21.112;2022-10-16T04:45:29;33.25;;;26.10;;
50988;SDS011;37008;52.210;21.112;2022-10-16T04:47:58;31.77;;;25.88;;
50988;SDS011;37008;52.210;21.112;2022-10-16T04:50:25;36.47;;;25.92;;
50988;SDS011;37008;52.210;21.112;2022-10-16T04:52:51;34.65;;;26.30;;
50988;SDS011;37008;52.210;21.112;2022-10-16T04:55:17;33.53;;;26.10;;
50988;SDS011;37008;52.210;21.112;2022-10-16T04:57:42;36.33;;;26.17;;
50988;SDS011;37008;52.210;21.112;2022-10-16T05:00:08;33.63;;;25.42;;
50988;SDS011;37008;52.210;21.112;2022-10-16T05:02:34;30.27;;;25.60;;
50988;SDS011;37008;52.210;21.112;2022-10-16T05:05:00;32.38;;;25.20;;
50988;SDS011;37008;52.210;21.112;2022-10-16T05:07:28;31.40;;;25.05;;
50988;SDS011;37008;52.210;21.112;2022-10-16T05:09:54;30.73;;;23.90;;
50988;SDS011;37008;52.210;21.112;2022-10-16T05:12:19;30.48;;;25.48;;
50988;SDS011;37008;52.210;21.112;2022-10-16T05:14:45;31.85;;;25.13;;
50988;SDS011;37008;52.210;21.112;2022-10-16T05:17:11;27.65;;;22.95;;
50988;SDS011;37008;52.210;21.112;2022-10-16T05:19:36;30.60;;;23.70;;
50988;SDS011;37008;52.210;21.112;2022-10-16T05:22:02;34.15;;;23.60;;
50988;SDS011;37008;52.210;21.112;2022-10-16T05:24:28;31.00;;;23.75;;
50988;SDS011;37008;52.210;21.112;2022-10-16T05:26:54;28.88;;;23.70;;
50988;SDS011;37008;52.210;21.112;2022-10-16T05:29:19;30.30;;;23.42;;
50988;SDS011;37008;52.210;21.112;2022-10-16T05:31:45;31.52;;;22.10;;
50988;SDS011;37008;52.210;21.112;2022-10-16T05:34:10;27.58;;;22.65;;
50988;SDS011;37008;52.210;21.112;2022-10-16T05:36:36;24.95;;;21.23;;
50988;SDS011;37008;52.210;21.112;2022-10-16T05:39:02;26.00;;;22.15;;
50988;SDS011;37008;52.210;21.112;2022-10-16T05:41:31;28.95;;;22.02;;
50988;SDS011;37008;52.210;21.112;2022-10-16T05:44:00;28.25;;;22.75;;
50988;SDS011;37008;52.210;21.112;2022-10-16T05:46:29;27.48;;;22.42;;
50988;SDS011;37008;52.210;21.112;2022-10-16T05:48:55;27.23;;;21.45;;
50988;SDS011;37008;52.210;21.112;2022-10-16T05:51:20;29.00;;;21.58;;
50988;SDS011;37008;52.210;21.112;2022-10-16T05:53:46;27.50;;;21.52;;
50988;SDS011;37008;52.210;21.112;2022-10-16T05:56:12;27.05;;;22.23;;
50988;SDS011;37008;52.210;21.112;2022-10-16T05:58:37;25.88;;;21.40;;
50988;SDS011;37008;52.210;21.112;2022-10-16T06:01:12;28.73;;;21.20;;
50988;SDS011;37008;52.210;21.112;2022-10-16T06:03:39;30.20;;;23.45;;
50988;SDS011;37008;52.210;21.112;2022-10-16T06:08:36;29.25;;;23.00;;
50988;SDS011;37008;52.210;21.112;2022-10-16T06:11:02;28.75;;;22.25;;
50988;SDS011;37008;52.210;21.112;2022-10-16T06:13:29;27.52;;;21.27;;
50988;SDS011;37008;52.210;21.112;2022-10-16T06:15:56;28.02;;;22.55;;
50988;SDS011;37008;52.210;21.112;2022-10-16T06:18:23;36.78;;;23.48;;
50988;SDS011;37008;52.210;21.112;2022-10-16T06:20:49;26.42;;;22.15;;
50988;SDS011;37008;52.210;21.112;2022-10-16T06:23:14;27.48;;;20.80;;
50988;SDS011;37008;52.210;21.112;2022-10-16T06:25:40;27.08;;;20.63;;
50988;SDS011;37008;52.210;21.112;2022-10-16T06:28:05;27.77;;;21.58;;
50988;SDS011;37008;52.210;21.112;2022-10-16T06:30:31;26.75;;;20.40;;
50988;SDS011;37008;52.210;21.112;2022-10-16T06:32:57;25.60;;;20.35;;
50988;SDS011;37008;52.210;21.112;2022-10-16T06:35:22;28.88;;;20.35;;
50988;SDS011;37008;52.210;21.112;2022-10-16T06:37:48;25.15;;;19.80;;
50988;SDS011;37008;52.210;21.112;2022-10-16T06:40:14;25.83;;;19.75;;
50988;SDS011;37008;52.210;21.112;2022-10-16T06:42:40;25.60;;;19.25;;
50988;SDS011;37008;52.210;21.112;2022-10-16T06:45:06;24.55;;;18.75;;
50988;SDS011;37008;52.210;21.112;2022-10-16T06:47:32;27.33;;;19.40;;
50988;SDS011;37008;52.210;21.112;2022-10-16T06:49:58;28.05;;;18.52;;
50988;SDS011;37008;52.210;21.112;2022-10-16T06:52:23;23.23;;;18.27;;
50988;SDS011;37008;52.210;21.112;2022-10-16T06:54:49;25.08;;;18.88;;
50988;SDS011;37008;52.210;21.112;2022-10-16T06:57:15;23.67;;;17.58;;
50988;SDS011;37008;52.210;21.112;2022-10-16T06:59:41;26.15;;;18.85;;
50988;SDS011;37008;52.210;21.112;2022-10-16T07:02:07;24.88;;;19.00;;
50988;SDS011;37008;52.210;21.112;2022-10-16T07:04:35;24.00;;;17.60;;
50988;SDS011;37008;52.210;21.112;2022-10-16T07:07:01;25.20;;;18.02;;
50988;SDS011;37008;52.210;21.112;2022-10-16T07:09:27;21.67;;;17.77;;
50988;SDS011;37008;52.210;21.112;2022-10-16T07:11:52;26.42;;;17.73;;
50988;SDS011;37008;52.210;21.112;2022-10-16T07:14:19;24.15;;;18.20;;
50988;SDS011;37008;52.210;21.112;2022-10-16T07:16:46;23.02;;;18.67;;
50988;SDS011;37008;52.210;21.112;2022-10-16T07:19:12;22.52;;;17.83;;
50988;SDS011;37008;52.210;21.112;2022-10-16T07:21:40;24.10;;;17.25;;
50988;SDS011;37008;52.210;21.112;2022-10-16T07:24:07;22.50;;;17.35;;
50988;SDS011;37008;52.210;21.112;2022-10-16T07:26:37;29.75;;;17.00;;
50988;SDS011;37008;52.210;21.112;2022-10-16T07:29:04;20.05;;;17.10;;
50988;SDS011;37008;52.210;21.112;2022-10-16T07:31:32;21.02;;;17.70;;
50988;SDS011;37008;52.210;21.112;2022-10-16T07:33:58;23.15;;;17.52;;
50988;SDS011;37008;52.210;21.112;2022-10-16T07:36:24;23.95;;;16.33;;
50988;SDS011;37008;52.210;21.112;2022-10-16T07:38:50;20.88;;;16.08;;
50988;SDS011;37008;52.210;21.112;2022-10-16T07:41:16;23.50;;;16.38;;
50988;SDS011;37008;52.210;21.112;2022-10-16T07:43:47;22.23;;;15.60;;
50988;SDS011;37008;52.210;21.112;2022-10-16T07:46:13;18.77;;;16.15;;
50988;SDS011;37008;52.210;21.112;2022-10-16T07:48:39;23.13;;;16.42;;
50988;SDS011;37008;52.210;21.112;2022-10-16T07:51:06;21.33;;;16.52;;
50988;SDS011;37008;52.210;21.112;2022-10-16T07:53:32;23.77;;;15.73;;
50988;SDS011;37008;52.210;21.112;2022-10-16T07:55:59;20.27;;;14.55;;
50988;SDS011;37008;52.210;21.112;2022-10-16T07:58:29;19.63;;;15.38;;
50988;SDS011;37008;52.210;21.112;2022-10-16T08:00:55;22.20;;;14.73;;
50988;SDS011;37008;52.210;21.112;2022-10-16T08:03:21;22.73;;;14.90;;
50988;SDS011;37008;52.210;21.112;2022-10-16T08:05:46;18.23;;;13.85;;
50988;SDS011;37008;52.210;21.112;2022-10-16T08:08:16;17.52;;;13.98;;
50988;SDS011;37008;52.210;21.112;2022-10-16T08:10:42;16.83;;;14.10;;
50988;SDS011;37008;52.210;21.112;2022-10-16T08:13:08;17.60;;;13.38;;
50988;SDS011;37008;52.210;21.112;2022-10-16T08:15:34;19.33;;;14.13;;
50988;SDS011;37008;52.210;21.112;2022-10-16T08:18:00;17.10;;;13.43;;
50988;SDS011;37008;52.210;21.112;2022-10-16T08:20:28;20.25;;;13.68;;
50988;SDS011;37008;52.210;21.112;2022-10-16T08:22:55;18.40;;;13.50;;
50988;SDS011;37008;52.210;21.112;2022-10-16T08:25:21;19.73;;;12.45;;
50988;SDS011;37008;52.210;21.112;2022-10-16T08:27:48;15.27;;;12.50;;
50988;SDS011;37008;52.210;21.112;2022-10-16T08:30:14;15.45;;;12.77;;
50988;SDS011;37008;52.210;21.112;2022-10-16T08:32:40;14.52;;;12.60;;
50988;SDS011;37008;52.210;21.112;2022-10-16T08:35:07;18.75;;;12.93;;
50988;SDS011;37008;52.210;21.112;2022-10-16T08:37:34;21.42;;;12.65;;
50988;SDS011;37008;52.210;21.112;2022-10-16T08:40:00;20.02;;;12.35;;
50988;SDS011;37008;52.210;21.112;2022-10-16T08:50:37;19.40;;;12.05;;
50988;SDS011;37008;52.210;21.112;2022-10-16T08:53:05;20.25;;;12.52;;
50988;SDS011;37008;52.210;21.112;2022-10-16T08:55:41;14.82;;;12.45;;
50988;SDS011;37008;52.210;21.112;2022-10-16T08:58:11;18.98;;;12.38;;
50988;SDS011;37008;52.210;21.112;2022-10-16T09:00:39;17.48;;;13.23;;
50988;SDS011;37008;52.210;21.112;2022-10-16T09:12:14;19.63;;;13.68;;
50988;SDS011;37008;52.210;21.112;2022-10-16T09:17:22;14.75;;;11.98;;
50988;SDS011;37008;52.210;21.112;2022-10-16T09:23:29;13.63;;;11.20;;
50988;SDS011;37008;52.210;21.112;2022-10-16T09:25:56;15.45;;;11.70;;
50988;SDS011;37008;52.210;21.112;2022-10-16T09:28:23;15.93;;;11.75;;
50988;SDS011;37008;52.210;21.112;2022-10-16T09:30:49;17.65;;;12.70;;
50988;SDS011;37008;52.210;21.112;2022-10-16T09:33:15;16.55;;;11.90;;
50988;SDS011;37008;52.210;21.112;2022-10-16T09:35:44;14.85;;;11.45;;
50988;SDS011;37008;52.210;21.112;2022-10-16T09:38:31;14.85;;;11.23;;
50988;SDS011;37008;52.210;21.112;2022-10-16T09:40:57;14.70;;;12.50;;
50988;SDS011;37008;52.210;21.112;2022-10-16T09:43:32;13.77;;;11.48;;
50988;SDS011;37008;52.210;21.112;2022-10-16T09:46:05;19.33;;;11.60;;
50988;SDS011;37008;52.210;21.112;2022-10-16T09:48:48;14.32;;;11.52;;
50988;SDS011;37008;52.210;21.112;2022-10-16T09:51:22;13.93;;;10.45;;
50988;SDS011;37008;52.210;21.112;2022-10-16T09:53:54;14.95;;;10.98;;
50988;SDS011;37008;52.210;21.112;2022-10-16T09:58:55;14.60;;;11.25;;
50988;SDS011;37008;52.210;21.112;2022-10-16T10:01:25;17.45;;;11.38;;
50988;SDS011;37008;52.210;21.112;2022-10-16T10:04:00;14.40;;;11.25;;
50988;SDS011;37008;52.210;21.112;2022-10-16T10:06:31;13.38;;;10.48;;
50988;SDS011;37008;52.210;21.112;2022-10-16T10:11:49;15.43;;;11.20;;
50988;SDS011;37008;52.210;21.112;2022-10-16T10:17:14;12.95;;;11.45;;
50988;SDS011;37008;52.210;21.112;2022-10-16T10:22:46;17.70;;;11.98;;
50988;SDS011;37008;52.210;21.112;2022-10-16T10:27:56;15.55;;;11.63;;
50988;SDS011;37008;52.210;21.112;2022-10-16T10:30:53;14.98;;;10.95;;
50988;SDS011;37008;52.210;21.112;2022-10-16T10:36:15;15.10;;;10.90;;
50988;SDS011;37008;52.210;21.112;2022-10-16T10:38:51;14.65;;;10.40;;
50988;SDS011;37008;52.210;21.112;2022-10-16T10:49:45;15.18;;;11.30;;
50988;SDS011;37008;52.210;21.112;2022-10-16T11:05:44;14.60;;;10.50;;
50988;SDS011;37008;52.210;21.112;2022-10-16T11:11:22;15.73;;;10.50;;
50988;SDS011;37008;52.210;21.112;2022-10-16T11:16:33;14.38;;;10.85;;
50988;SDS011;37008;52.210;21.112;2022-10-16T11:19:12;15.70;;;10.15;;
50988;SDS011;37008;52.210;21.112;2022-10-16T11:21:50;19.35;;;10.90;;
50988;SDS011;37008;52.210;21.112;2022-10-16T11:24:30;15.00;;;9.65;;
50988;SDS011;37008;52.210;21.112;2022-10-16T11:27:00;13.73;;;9.85;;
50988;SDS011;37008;52.210;21.112;2022-10-16T11:29:32;13.30;;;10.43;;
50988;SDS011;37008;52.210;21.112;2022-10-16T11:32:03;14.15;;;10.10;;
50988;SDS011;37008;52.210;21.112;2022-10-16T11:37:08;13.15;;;9.48;;
50988;SDS011;37008;52.210;21.112;2022-10-16T11:39:35;10.32;;;8.85;;
50988;SDS011;37008;52.210;21.112;2022-10-16T11:42:07;10.50;;;8.90;;
50988;SDS011;37008;52.210;21.112;2022-10-16T11:45:40;13.50;;;9.38;;
50988;SDS011;37008;52.210;21.112;2022-10-16T11:47:44;10.23;;;8.68;;
50988;SDS011;37008;52.210;21.112;2022-10-16T11:53:02;13.25;;;9.38;;
50988;SDS011;37008;52.210;21.112;2022-10-16T11:55:47;11.48;;;8.90;;
50988;SDS011;37008;52.210;21.112;2022-10-16T11:58:15;11.65;;;9.38;;
50988;SDS011;37008;52.210;21.112;2022-10-16T12:03:27;12.40;;;9.40;;
50988;SDS011;37008;52.210;21.112;2022-10-16T12:06:23;11.75;;;9.02;;
50988;SDS011;37008;52.210;21.112;2022-10-16T12:08:58;11.88;;;8.38;;
50988;SDS011;37008;52.210;21.112;2022-10-16T12:16:38;11.57;;;8.02;;
50988;SDS011;37008;52.210;21.112;2022-10-16T12:19:25;12.82;;;8.25;;
50988;SDS011;37008;52.210;21.112;2022-10-16T12:21:54;15.90;;;8.82;;
50988;SDS011;37008;52.210;21.112;2022-10-16T12:29:57;13.45;;;8.52;;
50988;SDS011;37008;52.210;21.112;2022-10-16T12:35:00;13.70;;;9.23;;
50988;SDS011;37008;52.210;21.112;2022-10-16T12:37:28;10.63;;;8.43;;
50988;SDS011;37008;52.210;21.112;2022-10-16T12:39:58;11.65;;;9.00;;
50988;SDS011;37008;52.210;21.112;2022-10-16T12:44:54;13.70;;;9.02;;
50988;SDS011;37008;52.210;21.112;2022-10-16T12:49:55;13.50;;;9.23;;
50988;SDS011;37008;52.210;21.112;2022-10-16T12:52:26;16.45;;;8.90;;
50988;SDS011;37008;52.210;21.112;2022-10-16T12:54:58;13.75;;;9.30;;
50988;SDS011;37008;52.210;21.112;2022-10-16T13:00:45;10.65;;;8.95;;
50988;SDS011;37008;52.210;21.112;2022-10-16T13:27:58;12.82;;;9.00;;
50988;SDS011;37008;52.210;21.112;2022-10-16T13:30:33;14.20;;;9.02;;
50988;SDS011;37008;52.210;21.112;2022-10-16T13:35:35;12.57;;;8.60;;
50988;SDS011;37008;52.210;21.112;2022-10-16T13:38:18;12.70;;;8.63;;
50988;SDS011;37008;52.210;21.112;2022-10-16T13:43:18;10.73;;;8.73;;
50988;SDS011;37008;52.210;21.112;2022-10-16T13:46:00;12.95;;;9.10;;
50988;SDS011;37008;52.210;21.112;2022-10-16T13:48:27;11.15;;;8.35;;
50988;SDS011;37008;52.210;21.112;2022-10-16T13:51:04;11.50;;;8.50;;
50988;SDS011;37008;52.210;21.112;2022-10-16T13:53:32;14.20;;;9.75;;
50988;SDS011;37008;52.210;21.112;2022-10-16T13:55:59;12.95;;;9.10;;
50988;SDS011;37008;52.210;21.112;2022-10-16T13:58:26;12.77;;;9.27;;
50988;SDS011;37008;52.210;21.112;2022-10-16T14:00:56;13.13;;;8.88;;
50988;SDS011;37008;52.210;21.112;2022-10-16T14:03:50;13.57;;;8.55;;
50988;SDS011;37008;52.210;21.112;2022-10-16T14:06:20;15.40;;;8.95;;
50988;SDS011;37008;52.210;21.112;2022-10-16T14:09:00;12.57;;;8.98;;
50988;SDS011;37008;52.210;21.112;2022-10-16T14:11:33;11.25;;;8.98;;
50988;SDS011;37008;52.210;21.112;2022-10-16T14:14:03;12.90;;;8.88;;
50988;SDS011;37008;52.210;21.112;2022-10-16T14:16:30;15.18;;;9.00;;
50988;SDS011;37008;52.210;21.112;2022-10-16T14:19:01;9.63;;;8.65;;
50988;SDS011;37008;52.210;21.112;2022-10-16T14:21:30;12.05;;;8.98;;
50988;SDS011;37008;52.210;21.112;2022-10-16T14:23:57;11.20;;;8.93;;
50988;SDS011;37008;52.210;21.112;2022-10-16T14:26:23;11.35;;;8.98;;
50988;SDS011;37008;52.210;21.112;2022-10-16T14:29:01;11.27;;;9.10;;
50988;SDS011;37008;52.210;21.112;2022-10-16T14:31:35;12.35;;;9.30;;
50988;SDS011;37008;52.210;21.112;2022-10-16T14:34:04;14.27;;;9.30;;
50988;SDS011;37008;52.210;21.112;2022-10-16T14:43:49;30.55;;;13.05;;
50988;SDS011;37008;52.210;21.112;2022-10-16T14:46:18;18.67;;;11.15;;
50988;SDS011;37008;52.210;21.112;2022-10-16T14:48:47;12.70;;;8.98;;
50988;SDS011;37008;52.210;21.112;2022-10-16T14:51:15;12.57;;;9.30;;
50988;SDS011;37008;52.210;21.112;2022-10-16T14:53:44;12.52;;;9.25;;
50988;SDS011;37008;52.210;21.112;2022-10-16T14:56:15;12.77;;;8.90;;
50988;SDS011;37008;52.210;21.112;2022-10-16T14:58:54;10.88;;;9.15;;
50988;SDS011;37008;52.210;21.112;2022-10-16T15:01:20;18.25;;;9.27;;
50988;SDS011;37008;52.210;21.112;2022-10-16T15:03:46;14.93;;;9.23;;
50988;SDS011;37008;52.210;21.112;2022-10-16T15:06:13;15.93;;;9.65;;
50988;SDS011;37008;52.210;21.112;2022-10-16T15:08:40;15.55;;;9.63;;
50988;SDS011;37008;52.210;21.112;2022-10-16T15:11:12;12.32;;;9.40;;
50988;SDS011;37008;52.210;21.112;2022-10-16T15:13:40;13.98;;;9.32;;
50988;SDS011;37008;52.210;21.112;2022-10-16T15:16:08;12.68;;;9.18;;
50988;SDS011;37008;52.210;21.112;2022-10-16T15:18:36;12.57;;;9.73;;
50988;SDS011;37008;52.210;21.112;2022-10-16T15:21:02;12.98;;;9.10;;
50988;SDS011;37008;52.210;21.112;2022-10-16T15:23:31;15.13;;;9.68;;
50988;SDS011;37008;52.210;21.112;2022-10-16T15:25:59;15.50;;;10.20;;
50988;SDS011;37008;52.210;21.112;2022-10-16T15:28:25;14.45;;;10.32;;
50988;SDS011;37008;52.210;21.112;2022-10-16T15:30:52;12.20;;;9.77;;
50988;SDS011;37008;52.210;21.112;2022-10-16T15:33:24;14.73;;;9.63;;
50988;SDS011;37008;52.210;21.112;2022-10-16T15:36:00;16.95;;;10.45;;
50988;SDS011;37008;52.210;21.112;2022-10-16T15:38:27;14.63;;;10.38;;
50988;SDS011;37008;52.210;21.112;2022-10-16T15:40:54;16.45;;;10.63;;
50988;SDS011;37008;52.210;21.112;2022-10-16T15:43:22;16.02;;;10.63;;
50988;SDS011;37008;52.210;21.112;2022-10-16T15:46:10;13.77;;;10.90;;
50988;SDS011;37008;52.210;21.112;2022-10-16T15:48:39;13.85;;;10.85;;
50988;SDS011;37008;52.210;21.112;2022-10-16T15:51:05;14.43;;;10.68;;
50988;SDS011;37008;52.210;21.112;2022-10-16T15:53:36;12.90;;;10.35;;
50988;SDS011;37008;52.210;21.112;2022-10-16T15:56:17;16.92;;;11.43;;
50988;SDS011;37008;52.210;21.112;2022-10-16T15:58:43;15.98;;;11.65;;
50988;SDS011;37008;52.210;21.112;2022-10-16T16:01:09;15.55;;;11.25;;
50988;SDS011;37008;52.210;21.112;2022-10-16T16:03:36;19.25;;;11.57;;
50988;SDS011;37008;52.210;21.112;2022-10-16T16:06:06;16.02;;;12.02;;
50988;SDS011;37008;52.210;21.112;2022-10-16T16:08:33;16.83;;;11.98;;
50988;SDS011;37008;52.210;21.112;2022-10-16T16:11:10;14.55;;;11.75;;
50988;SDS011;37008;52.210;21.112;2022-10-16T16:13:37;15.27;;;11.95;;
50988;SDS011;37008;52.210;21.112;2022-10-16T16:16:10;17.00;;;12.18;;
50988;SDS011;37008;52.210;21.112;2022-10-16T16:18:40;20.13;;;13.25;;
50988;SDS011;37008;52.210;21.112;2022-10-16T16:21:07;20.95;;;11.98;;
50988;SDS011;37008;52.210;21.112;2022-10-16T16:23:34;18.08;;;11.70;;
50988;SDS011;37008;52.210;21.112;2022-10-16T16:26:07;17.75;;;11.93;;
50988;SDS011;37008;52.210;21.112;2022-10-16T16:28:36;16.75;;;12.68;;
50988;SDS011;37008;52.210;21.112;2022-10-16T16:31:03;17.35;;;12.20;;
50988;SDS011;37008;52.210;21.112;2022-10-16T16:33:29;15.98;;;11.73;;
50988;SDS011;37008;52.210;21.112;2022-10-16T16:35:59;16.35;;;13.32;;
50988;SDS011;37008;52.210;21.112;2022-10-16T16:38:26;16.23;;;12.00;;
50988;SDS011;37008;52.210;21.112;2022-10-16T16:40:52;15.07;;;12.60;;
50988;SDS011;37008;52.210;21.112;2022-10-16T16:43:18;18.63;;;14.13;;
50988;SDS011;37008;52.210;21.112;2022-10-16T16:45:47;23.25;;;20.23;;
50988;SDS011;37008;52.210;21.112;2022-10-16T16:48:18;48.28;;;43.10;;
50988;SDS011;37008;52.210;21.112;2022-10-16T16:50:44;57.90;;;48.47;;
50988;SDS011;37008;52.210;21.112;2022-10-16T16:53:18;28.10;;;24.98;;
50988;SDS011;37008;52.210;21.112;2022-10-16T16:55:44;27.30;;;18.80;;
50988;SDS011;37008;52.210;21.112;2022-10-16T16:58:15;23.67;;;21.17;;
50988;SDS011;37008;52.210;21.112;2022-10-16T17:00:46;18.85;;;16.10;;